createdAt,value
2022-12-31T00:00:31.340Z,100794.80
2022-12-31T00:01:24.369Z,100795.22
2022-12-31T00:02:24.540Z,100794.91
2022-12-31T00:02:34.830Z,100801.52
2022-12-31T00:03:34.768Z,100801.86
2022-12-31T00:04:35.792Z,100801.30
2022-12-31T00:05:35.960Z,100801.30
2022-12-31T00:06:36.875Z,100802.24
2022-12-31T00:08:09.503Z,100810.23
2022-12-31T00:09:09.529Z,100810.02
2022-12-31T00:10:10.362Z,100810.02
2022-12-31T00:11:10.990Z,100809.02
2022-12-31T00:12:11.880Z,100809.02
2022-12-31T00:13:11.989Z,100809.19
2022-12-31T00:14:12.842Z,100809.02
2022-12-31T00:15:13.789Z,100808.24
2022-12-31T00:16:14.442Z,100807.69
2022-12-31T00:17:14.754Z,100806.40
2022-12-31T00:18:15.007Z,100804.91
2022-12-31T00:19:15.885Z,100803.23
2022-12-31T00:20:15.976Z,100801.75
2022-12-31T00:21:16.777Z,100800.20
2022-12-31T00:22:17.687Z,100799.48
2022-12-31T00:23:17.685Z,100798.11
2022-12-31T00:24:18.584Z,100797.22
2022-12-31T00:25:18.984Z,100795.77
2022-12-31T00:26:19.573Z,100794.91
2022-12-31T00:27:19.963Z,100793.97
2022-12-31T00:28:20.076Z,100791.55
2022-12-31T00:37:54.040Z,100779.66
2022-12-31T00:38:54.578Z,100780.34
2022-12-31T00:39:55.306Z,100781.20
2022-12-31T00:40:56.289Z,100782.00
2022-12-31T00:41:56.265Z,100783.03
2022-12-31T00:42:57.006Z,100784.09
2022-12-31T00:43:57.939Z,100785.64
2022-12-31T00:44:58.430Z,100787.30
2022-12-31T00:45:58.490Z,100788.16
2022-12-31T00:46:58.615Z,100789.39
2022-12-31T00:47:59.211Z,100790.85
2022-12-31T00:48:59.335Z,100792.09
2022-12-31T00:49:59.450Z,100793.37
2022-12-31T00:51:00.048Z,100794.50
2022-12-31T00:52:00.800Z,100795.02
2022-12-31T00:53:01.514Z,100796.19
2022-12-31T00:54:02.230Z,100797.86
2022-12-31T00:55:03.111Z,100799.23
2022-12-31T00:56:03.787Z,100799.98
2022-12-31T00:57:04.544Z,100801.27
2022-12-31T00:58:05.117Z,100802.44
2022-12-31T00:59:05.239Z,100803.97
2022-12-31T01:00:06.213Z,100805.82
2022-12-31T01:01:07.166Z,100806.77
2022-12-31T01:02:07.919Z,100808.11
2022-12-31T01:03:08.215Z,100809.15
2022-12-31T01:04:09.006Z,100810.23
2022-12-31T01:05:09.634Z,100811.45
2022-12-31T01:06:10.305Z,100812.83
2022-12-31T01:06:22.433Z,100837.19
2022-12-31T01:07:23.407Z,100836.80
2022-12-31T01:12:15.807Z,100840.61
2022-12-31T01:13:16.524Z,100840.95
2022-12-31T01:14:17.188Z,100840.44
2022-12-31T01:15:17.908Z,100840.05
2022-12-31T01:16:18.600Z,100839.89
2022-12-31T01:17:19.385Z,100839.84
2022-12-31T01:18:20.158Z,100839.52
2022-12-31T01:19:20.855Z,100839.48
2022-12-31T01:20:21.561Z,100840.69
2022-12-31T01:21:22.413Z,100841.16
2022-12-31T01:22:23.166Z,100842.14
2022-12-31T01:23:23.894Z,100843.13
2022-12-31T01:24:24.796Z,100844.56
2022-12-31T01:25:25.593Z,100845.51
2022-12-31T01:26:26.403Z,100847.20
2022-12-31T01:27:27.140Z,100848.69
2022-12-31T01:28:27.870Z,100850.55
2022-12-31T01:29:28.667Z,100852.00
2022-12-31T01:30:29.608Z,100854.29
2022-12-31T01:31:30.513Z,100856.71
2022-12-31T01:32:31.054Z,100859.61
2022-12-31T01:33:31.675Z,100862.58
2022-12-31T01:34:32.472Z,100864.62
2022-12-31T01:36:02.186Z,100903.84
2022-12-31T01:37:02.842Z,100904.53
2022-12-31T01:38:03.547Z,100904.27
2022-12-31T01:40:37.536Z,100898.29
2022-12-31T01:48:45.937Z,100878.08
2022-12-31T01:49:46.184Z,100878.72
2022-12-31T01:50:46.781Z,100879.56
2022-12-31T01:51:47.462Z,100879.95
2022-12-31T01:52:48.019Z,100880.70
2022-12-31T01:53:48.683Z,100880.13
2022-12-31T01:54:49.834Z,100880.63
2022-12-31T01:56:27.706Z,100871.31
2022-12-31T01:57:28.301Z,100871.06
2022-12-31T01:58:28.558Z,100870.04
2022-12-31T01:59:29.274Z,100869.15
2022-12-31T02:00:29.998Z,100868.88
2022-12-31T02:01:30.833Z,100868.24
2022-12-31T02:02:31.537Z,100866.58
2022-12-31T02:03:32.231Z,100864.95
2022-12-31T02:04:32.905Z,100862.52
2022-12-31T02:05:33.837Z,100860.94
2022-12-31T02:06:34.516Z,100858.80
2022-12-31T02:07:35.365Z,100855.77
2022-12-31T02:08:41.787Z,100852.53
2022-12-31T02:09:36.730Z,100847.58
2022-12-31T02:10:37.589Z,100844.67
2022-12-31T02:11:38.448Z,100841.89
2022-12-31T02:12:38.598Z,100839.83
2022-12-31T02:13:39.306Z,100837.51
2022-12-31T02:14:40.048Z,100835.03
2022-12-31T02:15:41.097Z,100833.09
2022-12-31T02:16:41.806Z,100831.46
2022-12-31T02:17:42.431Z,100830.17
2022-12-31T02:18:43.091Z,100829.25
2022-12-31T02:19:43.740Z,100828.98
2022-12-31T02:20:44.610Z,100828.73
2022-12-31T02:21:45.271Z,100827.33
2022-12-31T02:22:45.901Z,100827.41
2022-12-31T02:23:46.577Z,100828.03
2022-12-31T02:24:47.242Z,100828.60
2022-12-31T02:25:48.037Z,100829.15
2022-12-31T02:26:00.686Z,100840.63
2022-12-31T02:27:01.247Z,100840.37
2022-12-31T02:28:01.979Z,100840.98
2022-12-31T02:29:45.864Z,100833.62
2022-12-31T02:30:46.653Z,100834.42
2022-12-31T02:32:51.151Z,100826.08
2022-12-31T02:33:52.021Z,100826.00
2022-12-31T02:34:52.552Z,100826.00
2022-12-31T02:35:52.646Z,100826.26
2022-12-31T02:36:53.301Z,100826.38
2022-12-31T02:37:54.093Z,100826.38
2022-12-31T02:38:54.840Z,100826.09
2022-12-31T02:39:55.328Z,100825.94
2022-12-31T02:40:56.071Z,100825.12
2022-12-31T02:41:56.696Z,100823.80
2022-12-31T02:42:56.795Z,100822.72
2022-12-31T02:43:57.692Z,100821.89
2022-12-31T02:44:58.462Z,100821.11
2022-12-31T02:45:59.231Z,100819.64
2022-12-31T02:47:00.030Z,100818.73
2022-12-31T02:48:00.738Z,100816.84
2022-12-31T02:49:01.385Z,100814.07
2022-12-31T02:50:02.256Z,100811.46
2022-12-31T02:51:02.509Z,100809.44
2022-12-31T02:52:03.164Z,100808.20
2022-12-31T02:53:03.803Z,100806.48
2022-12-31T02:54:04.414Z,100805.22
2022-12-31T02:55:05.109Z,100803.80
2022-12-31T02:56:05.867Z,100803.06
2022-12-31T02:57:06.641Z,100802.49
2022-12-31T02:58:07.222Z,100801.50
2022-12-31T02:59:07.870Z,100800.86
2022-12-31T03:00:08.362Z,100801.05
2022-12-31T03:01:09.231Z,100801.21
2022-12-31T03:02:09.884Z,100800.53
2022-12-31T03:03:25.724Z,100799.89
2022-12-31T03:04:26.308Z,100799.13
2022-12-31T03:05:26.381Z,100799.04
2022-12-31T03:06:27.010Z,100798.70
2022-12-31T03:07:27.652Z,100798.70
2022-12-31T03:08:28.254Z,100798.01
2022-12-31T03:09:28.877Z,100797.55
2022-12-31T03:10:29.606Z,100797.53
2022-12-31T03:11:30.157Z,100796.59
2022-12-31T03:12:30.929Z,100796.45
2022-12-31T03:13:31.453Z,100795.55
2022-12-31T03:14:32.159Z,100793.84
2022-12-31T03:15:32.441Z,100792.69
2022-12-31T03:16:33.032Z,100791.02
2022-12-31T03:17:33.066Z,100789.52
2022-12-31T03:18:33.388Z,100788.48
2022-12-31T03:19:34.335Z,100787.41
2022-12-31T03:20:34.566Z,100786.30
2022-12-31T03:21:35.315Z,100785.36
2022-12-31T03:22:35.861Z,100784.55
2022-12-31T03:23:36.385Z,100784.12
2022-12-31T03:24:36.874Z,100783.95
2022-12-31T03:25:37.514Z,100783.45
2022-12-31T03:26:38.135Z,100783.19
2022-12-31T03:27:38.843Z,100782.67
2022-12-31T03:28:39.462Z,100783.09
2022-12-31T03:29:40.036Z,100784.45
2022-12-31T03:30:40.660Z,100784.45
2022-12-31T03:31:41.503Z,100784.62
2022-12-31T03:31:53.161Z,100796.18
2022-12-31T03:32:53.654Z,100795.77
2022-12-31T03:33:54.419Z,100796.23
2022-12-31T03:34:55.069Z,100795.45
2022-12-31T03:35:55.771Z,100795.53
2022-12-31T03:36:56.339Z,100796.59
2022-12-31T03:37:57.105Z,100797.74
2022-12-31T03:38:57.887Z,100799.61
2022-12-31T03:39:58.681Z,100801.66
2022-12-31T03:40:59.339Z,100802.59
2022-12-31T03:42:00.092Z,100803.95
2022-12-31T03:43:00.618Z,100805.06
2022-12-31T03:44:01.245Z,100807.57
2022-12-31T03:45:01.960Z,100809.45
2022-12-31T03:46:02.662Z,100811.76
2022-12-31T03:47:03.300Z,100814.02
2022-12-31T03:48:03.897Z,100816.66
2022-12-31T03:49:04.658Z,100819.80
2022-12-31T03:50:05.528Z,100822.19
2022-12-31T03:51:06.374Z,100824.23
2022-12-31T03:52:07.131Z,100825.92
2022-12-31T03:53:07.799Z,100826.17
2022-12-31T03:54:07.994Z,100828.47
2022-12-31T03:55:08.083Z,100830.16
2022-12-31T03:56:08.933Z,100831.86
2022-12-31T03:57:09.637Z,100833.13
2022-12-31T03:58:10.458Z,100834.70
2022-12-31T03:59:11.028Z,100835.47
2022-12-31T04:00:11.671Z,100835.58
2022-12-31T04:01:12.418Z,100835.86
2022-12-31T04:02:13.376Z,100837.33
2022-12-31T04:02:29.911Z,100845.77
2022-12-31T04:03:30.352Z,100844.19
2022-12-31T04:04:30.995Z,100843.38
2022-12-31T04:05:31.737Z,100843.13
2022-12-31T04:06:32.494Z,100842.36
2022-12-31T04:07:33.175Z,100841.68
2022-12-31T04:08:33.875Z,100840.32
2022-12-31T04:11:50.847Z,100825.80
2022-12-31T04:12:51.537Z,100826.06
2022-12-31T04:13:52.419Z,100826.47
2022-12-31T04:15:02.022Z,100825.72
2022-12-31T04:15:53.771Z,100825.28
2022-12-31T04:16:54.384Z,100824.60
2022-12-31T04:25:37.108Z,100836.09
2022-12-31T04:26:37.314Z,100836.69
2022-12-31T04:27:37.583Z,100837.63
2022-12-31T04:28:38.314Z,100837.51
2022-12-31T04:29:38.814Z,100839.30
2022-12-31T04:30:39.543Z,100839.86
2022-12-31T04:31:40.294Z,100839.78
2022-12-31T04:32:41.042Z,100840.87
2022-12-31T04:33:41.791Z,100841.30
2022-12-31T04:34:42.673Z,100841.98
2022-12-31T04:35:43.389Z,100842.36
2022-12-31T04:36:44.135Z,100843.05
2022-12-31T04:37:44.194Z,100845.00
2022-12-31T04:38:44.401Z,100845.00
2022-12-31T04:39:44.500Z,100846.19
2022-12-31T04:40:44.977Z,100845.00
2022-12-31T04:41:45.190Z,100845.58
2022-12-31T04:42:45.322Z,100846.65
2022-12-31T04:43:45.495Z,100848.18
2022-12-31T04:44:45.728Z,100848.69
2022-12-31T04:45:46.781Z,100849.83
2022-12-31T04:46:47.080Z,100851.02
2022-12-31T04:47:47.560Z,100852.94
2022-12-31T04:48:47.979Z,100854.25
2022-12-31T04:49:48.564Z,100854.25
2022-12-31T04:50:49.156Z,100856.12
2022-12-31T04:51:49.652Z,100857.66
2022-12-31T04:52:50.078Z,100859.28
2022-12-31T04:53:50.125Z,100861.16
2022-12-31T04:54:50.298Z,100862.61
2022-12-31T04:55:04.960Z,100891.36
2022-12-31T04:56:05.964Z,100890.95
2022-12-31T04:57:13.452Z,100889.92
2022-12-31T04:58:06.705Z,100889.66
2022-12-31T04:59:07.628Z,100888.18
2022-12-31T05:00:08.426Z,100888.42
2022-12-31T05:01:09.029Z,100888.16
2022-12-31T05:02:09.664Z,100888.07
2022-12-31T05:03:10.432Z,100888.54
2022-12-31T05:04:10.483Z,100889.05
2022-12-31T05:05:10.566Z,100890.02
2022-12-31T05:06:11.469Z,100890.53
2022-12-31T05:07:11.955Z,100891.89
2022-12-31T05:08:11.987Z,100893.25
2022-12-31T05:09:12.191Z,100894.83
2022-12-31T05:10:12.304Z,100895.56
2022-12-31T05:11:12.423Z,100897.17
2022-12-31T05:12:12.432Z,100898.80
2022-12-31T05:13:13.188Z,100900.25
2022-12-31T05:14:13.667Z,100901.91
2022-12-31T05:15:14.233Z,100903.27
2022-12-31T05:16:15.274Z,100904.46
2022-12-31T05:17:16.014Z,100906.33
2022-12-31T05:18:16.235Z,100907.19
2022-12-31T05:19:17.050Z,100908.42
2022-12-31T05:20:17.581Z,100909.77
2022-12-31T05:21:17.824Z,100910.19
2022-12-31T05:22:18.447Z,100911.03
2022-12-31T05:23:19.021Z,100911.42
2022-12-31T05:24:19.675Z,100910.98
2022-12-31T05:24:36.465Z,100895.31
2022-12-31T05:25:37.001Z,100895.48
2022-12-31T05:26:37.907Z,100895.31
2022-12-31T05:27:38.617Z,100894.72
2022-12-31T05:28:39.220Z,100893.86
2022-12-31T05:29:39.841Z,100893.14
2022-12-31T05:30:40.435Z,100892.78
2022-12-31T05:31:41.019Z,100891.88
2022-12-31T05:32:41.775Z,100891.70
2022-12-31T05:33:42.594Z,100891.48
2022-12-31T05:34:43.400Z,100891.73
2022-12-31T05:35:44.022Z,100890.50
2022-12-31T05:36:44.596Z,100890.27
2022-12-31T05:37:45.231Z,100890.64
2022-12-31T05:38:45.841Z,100891.91
2022-12-31T05:39:46.575Z,100891.94
2022-12-31T05:40:47.200Z,100891.88
2022-12-31T05:41:47.837Z,100891.81
2022-12-31T05:42:48.355Z,100892.09
2022-12-31T05:43:48.916Z,100892.28
2022-12-31T05:44:49.495Z,100891.88
2022-12-31T05:45:50.375Z,100891.77
2022-12-31T05:46:50.947Z,100891.11
2022-12-31T05:47:51.716Z,100890.16
2022-12-31T05:48:52.406Z,100888.47
2022-12-31T05:49:52.989Z,100888.27
2022-12-31T05:50:53.665Z,100888.47
2022-12-31T05:51:54.340Z,100887.73
2022-12-31T05:52:55.152Z,100887.84
2022-12-31T05:53:55.863Z,100887.60
2022-12-31T05:54:56.623Z,100887.30
2022-12-31T05:58:08.989Z,100898.61
2022-12-31T05:59:09.636Z,100898.78
2022-12-31T06:00:10.258Z,100898.70
2022-12-31T06:01:10.870Z,100898.36
2022-12-31T06:02:11.494Z,100898.19
2022-12-31T06:03:12.215Z,100897.63
2022-12-31T06:04:12.961Z,100897.55
2022-12-31T06:05:13.532Z,100897.74
2022-12-31T06:06:14.173Z,100897.91
2022-12-31T06:07:15.089Z,100897.23
2022-12-31T06:08:15.765Z,100896.80
2022-12-31T06:09:16.475Z,100895.42
2022-12-31T06:10:17.037Z,100895.30
2022-12-31T06:11:17.676Z,100895.20
2022-12-31T06:12:18.394Z,100895.45
2022-12-31T06:13:18.987Z,100894.16
2022-12-31T06:14:19.802Z,100894.55
2022-12-31T06:15:20.441Z,100893.52
2022-12-31T06:16:21.307Z,100893.38
2022-12-31T06:17:21.941Z,100893.16
2022-12-31T06:18:22.513Z,100891.95
2022-12-31T06:19:23.124Z,100891.91
2022-12-31T06:20:23.698Z,100891.45
2022-12-31T06:21:24.231Z,100891.50
2022-12-31T06:22:24.868Z,100890.81
2022-12-31T06:23:25.422Z,100891.10
2022-12-31T06:24:26.104Z,100891.37
2022-12-31T06:25:26.739Z,100891.91
2022-12-31T06:26:27.437Z,100891.33
2022-12-31T06:27:27.956Z,100890.85
2022-12-31T06:28:28.663Z,100890.45
2022-12-31T06:28:41.771Z,100886.66
2022-12-31T06:29:42.407Z,100885.94
2022-12-31T06:30:43.279Z,100885.42
2022-12-31T06:31:43.718Z,100884.16
2022-12-31T06:36:49.192Z,100878.98
2022-12-31T06:37:49.939Z,100879.32
2022-12-31T06:38:50.539Z,100879.74
2022-12-31T06:39:51.110Z,100880.08
2022-12-31T06:40:51.681Z,100880.63
2022-12-31T06:41:52.326Z,100880.70
2022-12-31T06:42:59.481Z,100880.82
2022-12-31T06:43:53.911Z,100880.85
2022-12-31T06:44:54.769Z,100881.52
2022-12-31T06:45:55.508Z,100882.92
2022-12-31T06:46:56.473Z,100883.34
2022-12-31T20:25:35.084Z,101149.70
2022-12-31T20:26:35.772Z,101148.77
2022-12-31T20:27:36.751Z,101148.94
2022-12-31T20:28:37.650Z,101149.06
2022-12-31T20:29:38.349Z,101148.90
2022-12-31T20:30:39.021Z,101148.90
2022-12-31T20:31:39.920Z,101149.06
2022-12-31T20:32:40.694Z,101149.74
2022-12-31T20:33:41.504Z,101150.08
2022-12-31T20:34:42.224Z,101150.55
2022-12-31T20:35:43.000Z,101151.82
2022-12-31T20:36:43.820Z,101151.91
2022-12-31T20:37:44.468Z,101152.63
2022-12-31T20:38:45.368Z,101152.92
2022-12-31T20:39:46.301Z,101153.69
2022-12-31T20:40:47.427Z,101154.84
2022-12-31T20:41:47.991Z,101155.39
2022-12-31T20:42:48.562Z,101156.34
2022-12-31T20:43:49.288Z,101157.27
2022-12-31T20:44:50.109Z,101157.74
2022-12-31T20:45:51.112Z,101158.90
2022-12-31T20:46:51.745Z,101159.72
2022-12-31T20:47:52.639Z,101160.61
2022-12-31T20:48:53.136Z,101161.25
2022-12-31T20:50:11.106Z,101162.23
2022-12-31T20:50:54.858Z,101163.08
2022-12-31T20:51:55.112Z,101163.34
2022-12-31T20:52:55.617Z,101163.52
2022-12-31T20:53:56.318Z,101164.75
2022-12-31T20:54:57.187Z,101165.73
2022-12-31T20:55:09.550Z,101184.64
2022-12-31T20:56:09.840Z,101184.22
2022-12-31T20:57:10.065Z,101184.00
2022-12-31T20:58:10.483Z,101183.70
2022-12-31T20:59:10.645Z,101184.13
2022-12-31T21:00:11.437Z,101183.55
2022-12-31T21:01:12.508Z,101183.32
2022-12-31T21:02:21.795Z,101183.32
2022-12-31T21:03:30.450Z,101183.67
2022-12-31T21:04:14.276Z,101183.88
2022-12-31T21:05:15.057Z,101183.97
2022-12-31T21:06:15.896Z,101184.44
2022-12-31T21:07:16.520Z,101184.73
2022-12-31T21:08:17.407Z,101185.30
2022-12-31T21:09:18.233Z,101186.27
2022-12-31T21:10:18.982Z,101186.73
2022-12-31T21:11:19.754Z,101187.08
2022-12-31T21:12:20.470Z,101187.59
2022-12-31T21:13:21.148Z,101188.22
2022-12-31T21:14:21.983Z,101188.98
2022-12-31T21:15:22.974Z,101189.80
2022-12-31T21:16:23.555Z,101190.86
2022-12-31T21:17:24.318Z,101191.88
2022-12-31T21:18:24.915Z,101192.77
2022-12-31T21:19:25.787Z,101192.86
2022-12-31T21:20:26.661Z,101193.50
2022-12-31T21:21:26.671Z,101194.30
2022-12-31T21:22:27.385Z,101195.11
2022-12-31T21:23:28.087Z,101195.75
2022-12-31T21:24:28.826Z,101196.72
2022-12-31T21:24:43.987Z,101210.13
2022-12-31T21:25:44.724Z,101209.87
2022-12-31T21:26:45.053Z,101210.77
2022-12-31T21:27:45.799Z,101212.13
2022-12-31T21:28:46.721Z,101213.44
2022-12-31T21:30:16.869Z,101214.16
2022-12-31T21:30:48.474Z,101215.13
2022-12-31T21:31:49.110Z,101216.45
2022-12-31T21:32:49.836Z,101217.51
2022-12-31T21:34:25.362Z,101247.77
2022-12-31T21:38:44.856Z,101248.74
2022-12-31T21:39:45.512Z,101248.33
2022-12-31T21:40:45.708Z,101248.27
2022-12-31T21:41:46.486Z,101248.62
2022-12-31T21:42:47.262Z,101248.58
2022-12-31T21:43:48.104Z,101249.05
2022-12-31T21:44:48.867Z,101249.30
2022-12-31T21:45:49.824Z,101249.89
2022-12-31T21:47:24.806Z,101250.14
2022-12-31T21:47:51.439Z,101250.73
2022-12-31T21:48:51.710Z,101250.91
2022-12-31T21:49:52.669Z,101251.41
2022-12-31T21:50:53.495Z,101251.50
2022-12-31T21:51:54.214Z,101251.54
2022-12-31T21:52:55.203Z,101251.23
2022-12-31T21:53:55.790Z,101251.58
2022-12-31T21:54:56.728Z,101252.05
2022-12-31T21:55:57.424Z,101252.60
2022-12-31T21:56:58.275Z,101252.94
2022-12-31T21:58:25.140Z,101253.58
2022-12-31T21:58:59.563Z,101254.75
2022-12-31T22:00:32.014Z,101255.91
2022-12-31T22:01:01.043Z,101256.41
2022-12-31T22:02:01.934Z,101257.25
2022-12-31T22:03:02.573Z,101257.72
2022-12-31T22:04:03.173Z,101258.05
2022-12-31T22:05:08.526Z,101258.56
2022-12-31T22:06:03.976Z,101258.86
2022-12-31T22:07:04.706Z,101259.32
2022-12-31T22:08:05.663Z,101260.39
2022-12-31T22:08:17.323Z,101275.53
2022-12-31T22:09:17.860Z,101275.11
2022-12-31T22:10:18.564Z,101274.94
2022-12-31T22:11:19.207Z,101275.32
2022-12-31T22:12:19.913Z,101274.65
2022-12-31T22:13:20.791Z,101274.13
2022-12-31T22:14:21.384Z,101274.52
2022-12-31T22:15:22.066Z,101274.48
2022-12-31T22:16:22.787Z,101274.52
2022-12-31T22:17:23.478Z,101274.31
2022-12-31T22:18:24.139Z,101274.83
2022-12-31T22:19:24.691Z,101275.83
2022-12-31T22:20:27.975Z,101276.20
2022-12-31T22:21:26.235Z,101276.59
2022-12-31T22:22:26.942Z,101277.56
2022-12-31T22:23:27.542Z,101278.02
2022-12-31T22:24:28.425Z,101278.61
2022-12-31T22:25:29.335Z,101279.03
2022-12-31T22:26:30.066Z,101280.29
2022-12-31T22:27:31.019Z,101280.95
2022-12-31T22:28:40.202Z,101282.11
2022-12-31T22:29:32.348Z,101283.36
2022-12-31T22:30:33.250Z,101283.41
2022-12-31T22:31:33.652Z,101284.50
2022-12-31T22:32:34.279Z,101284.66
2022-12-31T22:33:34.941Z,101285.46
2022-12-31T22:34:35.564Z,101286.27
2022-12-31T22:35:35.670Z,101287.10
2022-12-31T22:36:36.408Z,101287.91
2022-12-31T22:38:00.220Z,101298.27
2022-12-31T22:38:49.827Z,101298.27
2022-12-31T22:39:50.401Z,101298.16
2022-12-31T22:40:51.163Z,101296.84
2022-12-31T22:41:51.974Z,101296.42
2022-12-31T22:42:52.643Z,101295.88
2022-12-31T22:43:58.498Z,101295.53
2022-12-31T22:44:53.897Z,101295.45
2022-12-31T22:45:54.743Z,101294.57
2022-12-31T22:46:55.644Z,101294.39
2022-12-31T22:47:56.316Z,101294.06
2022-12-31T22:48:57.032Z,101293.38
2022-12-31T22:49:57.026Z,101292.79
2022-12-31T22:50:57.950Z,101292.62
2022-12-31T22:52:01.844Z,101291.47
2022-12-31T22:52:59.026Z,101290.47
2022-12-31T22:53:59.761Z,101290.97
2022-12-31T22:54:59.814Z,101290.17
2022-12-31T22:56:00.803Z,101288.83
2022-12-31T22:57:01.636Z,101287.86
2022-12-31T22:58:02.363Z,101286.89
2022-12-31T22:59:03.134Z,101286.12
2022-12-31T23:00:04.035Z,101285.66
2022-12-31T23:01:04.965Z,101285.29
2022-12-31T23:02:05.641Z,101285.03
2022-12-31T23:03:06.453Z,101285.03
2022-12-31T23:04:07.169Z,101285.20
2022-12-31T23:05:15.330Z,101285.33
2022-12-31T23:06:08.540Z,101285.83
2022-12-31T23:07:09.223Z,101286.52
2022-12-31T23:08:18.696Z,101286.61
2022-12-31T23:09:03.184Z,101288.09
2022-12-31T23:10:04.111Z,101287.58
2022-12-31T23:11:05.024Z,101286.81
2022-12-31T23:12:05.854Z,101285.94
2022-12-31T23:13:06.527Z,101285.05
2022-12-31T23:14:07.278Z,101283.78
2022-12-31T23:15:08.243Z,101282.39
2022-12-31T23:16:09.082Z,101280.95
2022-12-31T23:17:29.619Z,101280.05
2022-12-31T23:18:10.606Z,101278.63
2022-12-31T23:19:10.662Z,101276.98
2022-12-31T23:20:11.271Z,101275.63
2022-12-31T23:21:11.292Z,101274.66
2022-12-31T23:22:11.848Z,101272.89
2022-12-31T23:23:12.346Z,101270.73
2022-12-31T23:24:20.172Z,101269.17
2022-12-31T23:25:12.919Z,101267.44
2022-12-31T23:26:13.692Z,101266.34
2022-12-31T23:27:14.615Z,101264.95
2022-12-31T23:28:14.933Z,101264.03
2022-12-31T23:29:15.124Z,101262.63
2022-12-31T23:30:15.812Z,101261.02
2022-12-31T23:31:16.721Z,101260.47
2022-12-31T23:32:17.418Z,101259.12
2022-12-31T23:33:17.575Z,101258.61
2022-12-31T23:34:18.563Z,101258.14
2022-12-31T23:35:19.351Z,101258.05
2022-12-31T23:36:20.125Z,101257.67
2022-12-31T23:37:20.276Z,101256.91
2022-12-31T23:38:20.909Z,101256.28
2022-12-31T23:38:31.557Z,101253.98
2022-12-31T23:39:32.262Z,101253.26
2022-12-31T23:40:32.451Z,101253.39
2022-12-31T23:41:33.393Z,101253.55
2022-12-31T23:42:34.293Z,101253.81
2022-12-31T23:43:34.986Z,101253.69
2022-12-31T23:44:35.712Z,101254.49
2022-12-31T23:45:36.437Z,101254.28
2022-12-31T23:46:37.261Z,101254.33
2022-12-31T23:47:38.205Z,101254.59
2022-12-31T23:48:38.874Z,101254.67
2022-12-31T23:49:38.937Z,101255.14
2022-12-31T23:50:39.658Z,101254.77
2022-12-31T23:51:40.559Z,101254.81
2022-12-31T23:52:41.268Z,101254.63
2022-12-31T23:53:41.975Z,101254.77
2022-12-31T23:54:42.552Z,101254.84
2022-12-31T23:55:43.236Z,101254.64
2022-12-31T23:56:43.988Z,101254.94
2022-12-31T23:57:44.898Z,101255.20
2022-12-31T23:58:45.813Z,101255.80
2022-12-31T23:59:46.027Z,101255.89
